Time;durP1;ratioP1;P1;durP2;ratioP2;P2;SDS_P1;SDS_P2;PMS_P1;PMS_P2;Temp;Humidity;BMP_temperature;BMP_pressure;BME280_temperature;BME280_humidity;BME280_pressure;Samples;Min_cycle;Max_cycle;Signal;HPM_P1;HPM_P2
2024/02/02 00:02:07;;;;;;;5.63;3.63;;;;;4.20;100074.00;;;;5055995;28;20098;-62
2024/02/02 00:04:34;;;;;;;4.72;3.58;;;;;4.10;100055.00;;;;5055416;28;20045;-62
2024/02/02 00:07:00;;;;;;;4.78;3.30;;;;;4.00;100050.00;;;;5055545;28;20041;-62
2024/02/02 00:09:27;;;;;;;5.68;3.38;;;;;3.90;100039.00;;;;5054627;28;20049;-63
2024/02/02 00:11:53;;;;;;;5.80;3.40;;;;;3.90;100035.00;;;;5054284;28;20052;-62
2024/02/02 00:14:20;;;;;;;5.85;3.80;;;;;3.80;100021.00;;;;5054633;28;20045;-62
2024/02/02 00:16:47;;;;;;;6.75;3.90;;;;;3.60;100021.00;;;;5055133;28;20128;-63
2024/02/02 00:19:13;;;;;;;5.18;4.00;;;;;3.50;100022.00;;;;5055150;28;20048;-63
2024/02/02 00:21:40;;;;;;;7.60;4.32;;;;;3.70;100039.00;;;;5054913;28;20040;-63
2024/02/02 00:24:07;;;;;;;5.38;3.83;;;;;3.80;100041.00;;;;5053169;28;20116;-63
2024/02/02 00:26:34;;;;;;;6.45;4.25;;;;;3.80;100039.00;;;;5053523;28;20474;-62
2024/02/02 00:29:00;;;;;;;5.43;4.03;;;;;3.80;100032.00;;;;5053773;28;20072;-62
2024/02/02 00:31:27;;;;;;;6.07;3.88;;;;;3.70;100033.00;;;;5054895;28;20044;-63
2024/02/02 00:33:54;;;;;;;4.95;3.25;;;;;3.70;100026.00;;;;5054219;28;20041;-61
2024/02/02 00:36:20;;;;;;;5.40;3.63;;;;;3.60;100016.00;;;;5054740;28;20444;-62
2024/02/02 00:38:47;;;;;;;7.63;4.25;;;;;3.60;100018.00;;;;5053569;28;20033;-61
2024/02/02 00:41:14;;;;;;;5.45;3.80;;;;;3.60;100024.00;;;;5053314;28;20048;-63
2024/02/02 00:43:41;;;;;;;6.68;5.25;;;;;3.70;100029.00;;;;5053826;28;20051;-62
2024/02/02 00:46:07;;;;;;;7.15;5.07;;;;;3.80;100008.00;;;;5054455;28;20037;-62
2024/02/02 00:48:34;;;;;;;6.30;4.40;;;;;4.00;100025.00;;;;5052858;28;20175;-64
2024/02/02 00:51:01;;;;;;;6.93;5.43;;;;;4.00;100028.00;;;;5054001;28;20049;-62
2024/02/02 00:53:28;;;;;;;6.47;4.75;;;;;3.90;100030.00;;;;5052556;28;20037;-63
2024/02/02 00:55:55;;;;;;;5.07;4.25;;;;;3.80;100026.00;;;;5054474;28;20047;-63
2024/02/02 00:58:21;;;;;;;9.20;3.97;;;;;3.70;100031.00;;;;5054491;28;20047;-62
2024/02/02 01:00:48;;;;;;;3.85;3.35;;;;;3.70;100031.00;;;;5054481;28;20045;-61
2024/02/02 01:03:14;;;;;;;7.43;4.45;;;;;3.60;100034.00;;;;5054446;28;20091;-62
2024/02/02 01:05:41;;;;;;;5.95;3.65;;;;;3.60;100031.00;;;;5054071;28;20573;-62
2024/02/02 01:08:08;;;;;;;4.90;4.15;;;;;3.50;100018.00;;;;5054444;28;20418;-63
2024/02/02 01:10:34;;;;;;;4.32;3.55;;;;;3.60;100012.00;;;;5054214;28;20060;-62
2024/02/02 01:13:01;;;;;;;7.28;4.13;;;;;3.80;100011.00;;;;5053952;28;20076;-62
2024/02/02 01:15:27;;;;;;;6.95;4.20;;;;;3.90;100010.00;;;;5053567;28;20037;-62
2024/02/02 01:17:54;;;;;;;5.32;3.92;;;;;4.10;100023.00;;;;5053921;28;20383;-62
2024/02/02 01:20:21;;;;;;;7.80;4.53;;;;;4.20;100018.00;;;;5053762;28;20045;-62
2024/02/02 01:22:48;;;;;;;7.03;4.15;;;;;4.20;100019.00;;;;5053839;28;20448;-61
2024/02/02 01:25:14;;;;;;;8.50;4.13;;;;;4.20;100021.00;;;;5053000;28;20051;-62
2024/02/02 01:27:41;;;;;;;6.30;4.50;;;;;4.20;100020.00;;;;5053635;28;20056;-62
2024/02/02 01:30:11;;;;;;;7.40;5.13;;;;;4.30;100022.00;;;;5053407;28;20438;-62
2024/02/02 01:32:38;;;;;;;9.27;4.53;;;;;4.50;100020.00;;;;5052884;28;20064;-62
2024/02/02 01:35:05;;;;;;;6.88;4.63;;;;;4.50;100024.00;;;;5052632;28;20041;-62
2024/02/02 01:37:32;;;;;;;5.72;4.10;;;;;4.50;100023.00;;;;5053363;28;20037;-62
2024/02/02 01:39:58;;;;;;;6.32;4.05;;;;;4.40;100015.00;;;;5053189;28;20468;-62
2024/02/02 01:42:25;;;;;;;7.78;4.43;;;;;4.40;100015.00;;;;5052947;28;20123;-61
2024/02/02 01:44:52;;;;;;;6.53;4.13;;;;;4.40;100011.00;;;;5052574;28;20510;-63
2024/02/02 01:47:18;;;;;;;8.90;4.88;;;;;4.40;100018.00;;;;5053620;28;20079;-62
2024/02/02 01:49:45;;;;;;;6.15;4.05;;;;;4.40;100020.00;;;;5053743;28;20041;-62
2024/02/02 01:52:12;;;;;;;6.22;4.55;;;;;4.40;100022.00;;;;5053860;28;20136;-63
2024/02/02 01:54:39;;;;;;;7.00;5.15;;;;;4.10;100031.00;;;;5052590;28;20506;-62
2024/02/02 01:57:06;;;;;;;5.30;4.63;;;;;4.10;100031.00;;;;5053119;28;20041;-62
2024/02/02 01:59:33;;;;;;;6.80;4.80;;;;;4.20;100028.00;;;;5053162;28;20032;-62
2024/02/02 02:01:59;;;;;;;6.03;3.80;;;;;4.30;100018.00;;;;5051952;28;20047;-62
2024/02/02 02:04:26;;;;;;;6.50;4.65;;;;;4.40;100026.00;;;;5052719;28;20049;-62
2024/02/02 02:06:53;;;;;;;8.95;4.60;;;;;4.40;100014.00;;;;5053210;28;20045;-62
2024/02/02 02:09:20;;;;;;;6.00;4.38;;;;;4.50;100015.00;;;;5053309;28;20044;-62
2024/02/02 02:11:46;;;;;;;8.70;4.40;;;;;4.50;100018.00;;;;5053356;28;20460;-62
2024/02/02 02:14:13;;;;;;;6.10;4.13;;;;;4.60;100015.00;;;;5052864;28;20048;-62
2024/02/02 02:16:39;;;;;;;6.85;3.90;;;;;4.60;100005.00;;;;5053771;28;20096;-62
2024/02/02 02:19:12;;;;;;;6.32;4.43;;;;;4.60;100013.00;;;;5053834;28;20051;-62
2024/02/02 02:21:39;;;;;;;5.75;3.85;;;;;4.60;100015.00;;;;5053798;28;20060;-62
2024/02/02 02:24:05;;;;;;;6.18;4.32;;;;;4.60;100012.00;;;;5051959;28;20053;-63
2024/02/02 02:26:32;;;;;;;6.65;4.13;;;;;4.60;100019.00;;;;5052335;28;20048;-63
2024/02/02 02:28:59;;;;;;;6.68;4.38;;;;;4.50;100017.00;;;;5052467;28;20048;-64
2024/02/02 02:31:25;;;;;;;6.55;4.13;;;;;4.30;100023.00;;;;5052345;28;20055;-62
2024/02/02 02:33:52;;;;;;;6.05;4.60;;;;;4.20;100011.00;;;;5051887;28;20051;-63
2024/02/02 02:36:20;;;;;;;8.35;4.53;;;;;4.30;100024.00;;;;5051216;28;20514;-63
2024/02/02 02:38:48;;;;;;;7.57;4.38;;;;;4.40;100020.00;;;;5052555;28;20494;-63
2024/02/02 02:41:15;;;;;;;7.82;4.10;;;;;4.50;99999.00;;;;5052273;28;20494;-63
2024/02/02 02:43:41;;;;;;;9.25;4.30;;;;;4.60;100008.00;;;;5050765;28;20049;-63
2024/02/02 02:46:08;;;;;;;7.20;4.05;;;;;4.60;100007.00;;;;5052387;28;20051;-63
2024/02/02 02:48:38;;;;;;;6.03;4.32;;;;;4.60;100014.00;;;;5052575;28;20383;-63
2024/02/02 02:51:05;;;;;;;7.55;4.40;;;;;4.70;99999.00;;;;5051257;28;20052;-62
2024/02/02 02:53:32;;;;;;;7.22;4.40;;;;;4.60;99993.00;;;;5052005;28;20130;-62
2024/02/02 02:55:58;;;;;;;9.07;4.97;;;;;4.50;99997.00;;;;5052586;28;20045;-62
2024/02/02 02:58:25;;;;;;;7.45;4.45;;;;;4.40;99990.00;;;;5053389;28;20526;-62
2024/02/02 03:00:53;;;;;;;5.97;4.10;;;;;4.30;99983.00;;;;5052844;28;20098;-62
2024/02/02 03:03:19;;;;;;;6.90;4.05;;;;;4.30;99979.00;;;;5054469;28;20068;-62
2024/02/02 03:05:46;;;;;;;5.95;4.38;;;;;4.40;99975.00;;;;5057977;28;20049;-62
2024/02/02 03:08:13;;;;;;;5.18;4.00;;;;;4.30;99980.00;;;;5060949;28;20505;-63
2024/02/02 03:10:41;;;;;;;5.28;3.80;;;;;4.20;99968.00;;;;5059918;28;20107;-63
2024/02/02 03:13:09;;;;;;;6.50;3.70;;;;;4.20;99959.00;;;;5057601;28;20051;-64
2024/02/02 03:15:36;;;;;;;5.78;3.80;;;;;4.10;99956.00;;;;5058734;28;20140;-63
2024/02/02 03:18:03;;;;;;;6.03;3.78;;;;;4.00;99956.00;;;;5059593;28;20616;-63
2024/02/02 03:20:30;;;;;;;5.97;3.20;;;;;3.90;99978.00;;;;5057809;28;20048;-63
2024/02/02 03:22:56;;;;;;;6.85;3.78;;;;;3.70;99987.00;;;;5059350;28;20045;-63
2024/02/02 03:25:23;;;;;;;5.40;3.33;;;;;3.70;99975.00;;;;5058775;28;20044;-63
2024/02/02 03:27:50;;;;;;;4.47;3.30;;;;;3.80;99973.00;;;;5055201;28;20486;-62
2024/02/02 03:30:16;;;;;;;4.65;3.30;;;;;3.90;99980.00;;;;5052004;28;20091;-62
2024/02/02 03:32:44;;;;;;;5.32;3.13;;;;;4.00;99983.00;;;;5050744;28;20098;-62
2024/02/02 03:35:11;;;;;;;4.38;2.80;;;;;3.90;99962.00;;;;5050075;28;20490;-62
2024/02/02 03:37:38;;;;;;;4.82;3.08;;;;;4.00;99955.00;;;;5051547;28;20135;-63
2024/02/02 03:40:05;;;;;;;6.63;3.83;;;;;4.20;99957.00;;;;5057701;28;20037;-63
2024/02/02 03:42:32;;;;;;;4.10;3.70;;;;;4.30;99947.00;;;;5060132;28;20045;-62
2024/02/02 03:44:58;;;;;;;5.50;3.47;;;;;4.30;99944.00;;;;5059181;28;20413;-62
2024/02/02 03:47:25;;;;;;;5.47;3.78;;;;;4.40;99972.00;;;;5059343;28;20060;-62
2024/02/02 03:49:51;;;;;;;8.05;3.90;;;;;4.40;99961.00;;;;5059088;28;20524;-63
2024/02/02 03:52:23;;;;;;;7.28;4.32;;;;;4.40;99962.00;;;;5054851;28;20110;-62
2024/02/02 03:54:50;;;;;;;6.65;4.30;;;;;4.60;99971.00;;;;5055695;28;20053;-62
2024/02/02 03:57:17;;;;;;;7.93;4.05;;;;;4.70;99966.00;;;;5059141;28;20102;-62
2024/02/02 03:59:44;;;;;;;7.15;3.78;;;;;4.80;99964.00;;;;5056854;28;20052;-63
2024/02/02 04:02:11;;;;;;;4.38;3.85;;;;;4.90;99965.00;;;;5055679;28;20041;-63
2024/02/02 04:04:38;;;;;;;6.45;4.32;;;;;4.90;99973.00;;;;5057439;28;20040;-62
2024/02/02 04:07:04;;;;;;;8.63;4.55;;;;;5.00;99973.00;;;;5057358;28;20148;-63
2024/02/02 04:09:31;;;;;;;13.55;8.55;;;;;4.90;99975.00;;;;5058455;28;20468;-62
2024/02/02 04:11:58;;;;;;;9.23;4.88;;;;;4.80;99967.00;;;;5060276;28;20056;-62
2024/02/02 04:14:24;;;;;;;7.65;4.68;;;;;4.80;99964.00;;;;5055785;28;20471;-62
2024/02/02 04:16:51;;;;;;;7.78;5.00;;;;;4.90;99953.00;;;;5055626;28;20537;-63
2024/02/02 04:19:19;;;;;;;9.27;5.30;;;;;4.90;99967.00;;;;5055413;28;20047;-63
2024/02/02 04:21:46;;;;;;;8.57;5.47;;;;;5.00;99959.00;;;;5055544;28;20064;-63
2024/02/02 04:24:13;;;;;;;9.75;5.28;;;;;5.00;99959.00;;;;5059562;28;20120;-62
2024/02/02 04:26:39;;;;;;;10.38;5.53;;;;;5.00;99952.00;;;;5055403;28;20060;-63
2024/02/02 04:29:06;;;;;;;8.85;4.88;;;;;5.10;99966.00;;;;5056596;28;20108;-63
2024/02/02 04:31:32;;;;;;;7.60;4.90;;;;;5.10;99948.00;;;;5055546;28;20037;-65
2024/02/02 04:33:59;;;;;;;8.63;5.57;;;;;5.20;99949.00;;;;5056454;28;20045;-63
2024/02/02 04:36:26;;;;;;;8.70;5.82;;;;;5.10;99962.00;;;;5057606;28;20077;-63
2024/02/02 04:38:52;;;;;;;9.20;5.85;;;;;5.00;99968.00;;;;5058040;28;20045;-63
2024/02/02 04:41:19;;;;;;;8.50;6.10;;;;;5.00;99982.00;;;;5061535;28;20075;-63
2024/02/02 04:43:46;;;;;;;8.57;5.95;;;;;5.00;99976.00;;;;5064924;28;20075;-63
2024/02/02 04:46:12;;;;;;;9.38;5.75;;;;;4.90;99977.00;;;;5067210;28;20124;-63
2024/02/02 04:48:39;;;;;;;8.50;5.57;;;;;4.90;99971.00;;;;5065915;28;20059;-63
2024/02/02 04:51:06;;;;;;;8.27;5.13;;;;;4.90;99967.00;;;;5063955;28;20045;-62
2024/02/02 04:53:32;;;;;;;9.70;6.07;;;;;4.90;99972.00;;;;5062710;28;20509;-63
2024/02/02 04:55:59;;;;;;;7.68;6.07;;;;;4.90;99981.00;;;;5055195;28;20482;-63
2024/02/02 04:58:26;;;;;;;9.90;6.05;;;;;5.00;99981.00;;;;5053331;28;20235;-63
2024/02/02 05:00:52;;;;;;;8.50;6.15;;;;;5.10;99998.00;;;;5054141;28;20124;-63
2024/02/02 05:03:19;;;;;;;7.88;5.88;;;;;5.10;99995.00;;;;5054172;28;20041;-63
2024/02/02 05:05:46;;;;;;;12.85;5.70;;;;;5.20;100000.00;;;;5053344;28;20080;-64
2024/02/02 05:08:12;;;;;;;10.35;6.35;;;;;5.20;100003.00;;;;5053583;28;20041;-63
2024/02/02 05:10:39;;;;;;;11.07;6.50;;;;;5.20;99988.00;;;;5053824;28;20041;-64
2024/02/02 05:13:06;;;;;;;11.25;6.63;;;;;5.10;99979.00;;;;5053818;28;20049;-64
2024/02/02 05:15:32;;;;;;;9.75;6.13;;;;;5.10;99993.00;;;;5053563;28;20647;-64
2024/02/02 05:17:59;;;;;;;10.55;6.18;;;;;5.20;99994.00;;;;5052871;28;20106;-63
2024/02/02 05:20:26;;;;;;;10.77;6.25;;;;;5.20;100008.00;;;;5053742;28;20483;-63
2024/02/02 05:22:53;;;;;;;7.15;5.47;;;;;5.20;100009.00;;;;5053776;28;20119;-62
2024/02/02 05:25:19;;;;;;;9.50;6.65;;;;;5.30;100002.00;;;;5052950;28;20132;-63
2024/02/02 05:27:46;;;;;;;10.10;6.63;;;;;5.40;100011.00;;;;5053577;28;20048;-63
2024/02/02 05:30:13;;;;;;;7.80;5.88;;;;;5.40;100010.00;;;;5053365;28;20048;-63
2024/02/02 05:32:40;;;;;;;10.98;6.78;;;;;5.30;100012.00;;;;5053513;28;20044;-62
2024/02/02 05:35:07;;;;;;;11.88;6.22;;;;;5.40;100019.00;;;;5052916;28;20044;-63
2024/02/02 05:37:33;;;;;;;9.57;6.30;;;;;5.40;100029.00;;;;5053514;28;20044;-63
2024/02/02 05:40:00;;;;;;;9.43;5.65;;;;;5.30;100044.00;;;;5054101;28;20049;-64
2024/02/02 05:42:27;;;;;;;12.18;7.88;;;;;5.30;100043.00;;;;5053230;28;20128;-63
2024/02/02 05:44:53;;;;;;;8.40;6.07;;;;;5.40;100046.00;;;;5052614;28;20047;-63
2024/02/02 05:47:20;;;;;;;8.93;6.07;;;;;5.40;100031.00;;;;5053261;28;20045;-63
2024/02/02 05:49:47;;;;;;;9.85;6.20;;;;;5.40;100029.00;;;;5053139;28;20044;-63
2024/02/02 05:52:14;;;;;;;9.73;5.90;;;;;5.50;100030.00;;;;5053269;28;20044;-63
2024/02/02 05:54:40;;;;;;;9.73;6.65;;;;;5.60;100033.00;;;;5052624;28;20122;-63
2024/02/02 05:57:07;;;;;;;10.30;6.65;;;;;5.50;100039.00;;;;5053003;28;20498;-63
2024/02/02 05:59:34;;;;;;;9.57;6.60;;;;;5.50;100031.00;;;;5051876;28;20063;-64
2024/02/02 06:02:00;;;;;;;10.02;6.38;;;;;5.50;100039.00;;;;5052997;28;20493;-63
2024/02/02 06:04:27;;;;;;;9.90;7.13;;;;;5.50;100030.00;;;;5051026;28;20417;-64
2024/02/02 06:06:54;;;;;;;13.35;7.10;;;;;5.50;100030.00;;;;5053150;28;20064;-63
2024/02/02 06:09:20;;;;;;;8.10;5.97;;;;;5.50;100023.00;;;;5053196;28;20049;-62
2024/02/02 06:11:47;;;;;;;11.48;6.68;;;;;5.50;100013.00;;;;5051626;28;20068;-63
2024/02/02 06:14:14;;;;;;;13.02;6.70;;;;;5.60;100013.00;;;;5052285;28;20448;-62
2024/02/02 06:16:40;;;;;;;13.55;8.18;;;;;5.60;99998.00;;;;5052973;28;20041;-62
2024/02/02 06:19:07;;;;;;;11.88;7.53;;;;;5.60;100003.00;;;;5052881;28;20069;-63
2024/02/02 06:21:33;;;;;;;12.27;6.93;;;;;5.60;100002.00;;;;5052643;28;20474;-62
2024/02/02 06:24:00;;;;;;;12.77;7.53;;;;;5.60;100015.00;;;;5052287;28;20053;-62
2024/02/02 06:26:27;;;;;;;13.43;6.95;;;;;5.60;100017.00;;;;5052426;28;20052;-63
2024/02/02 06:28:53;;;;;;;16.65;7.70;;;;;5.60;100019.00;;;;5052664;28;20049;-63
2024/02/02 06:31:21;;;;;;;9.95;6.68;;;;;5.60;100021.00;;;;5052466;28;20037;-63
2024/02/02 06:33:48;;;;;;;15.05;7.70;;;;;5.50;100026.00;;;;5050805;28;20049;-63
2024/02/02 06:36:15;;;;;;;14.82;8.38;;;;;5.60;100035.00;;;;5052542;28;20482;-63
2024/02/02 06:38:41;;;;;;;20.08;10.40;;;;;5.70;100028.00;;;;5052257;28;20094;-63
2024/02/02 06:41:10;;;;;;;12.35;8.73;;;;;5.70;100015.00;;;;5051093;28;20554;-63
2024/02/02 06:43:37;;;;;;;15.00;8.07;;;;;5.70;100010.00;;;;5048389;28;20052;-63
2024/02/02 06:46:04;;;;;;;16.00;9.10;;;;;5.80;100009.00;;;;5052425;28;20110;-62
2024/02/02 06:48:30;;;;;;;14.00;8.70;;;;;5.90;100017.00;;;;5052230;28;20124;-63
2024/02/02 06:50:57;;;;;;;14.77;8.60;;;;;5.90;100017.00;;;;5052208;28;20051;-64
2024/02/02 06:53:28;;;;;;;12.50;8.57;;;;;5.80;100026.00;;;;5051455;28;20047;-62
2024/02/02 06:55:55;;;;;;;14.02;8.82;;;;;5.70;100029.00;;;;5052354;28;20083;-62
2024/02/02 06:58:41;;;;;;;12.98;7.95;;;;;5.60;100033.00;;;;5050755;28;20045;-63
2024/02/02 07:01:08;;;;;;;14.13;8.20;;;;;5.50;100029.00;;;;5052092;28;20116;-63
2024/02/02 07:03:36;;;;;;;20.55;9.82;;;;;5.50;100026.00;;;;5051446;28;20076;-63
2024/02/02 07:06:06;;;;;;;17.20;10.43;;;;;5.60;100036.00;;;;5051915;28;20440;-64
2024/02/02 07:08:33;;;;;;;15.73;10.52;;;;;5.70;100038.00;;;;5050740;28;20569;-64
2024/02/02 07:11:12;;;;;;;19.08;10.88;;;;;5.70;100039.00;;;;5050604;28;20443;-64
2024/02/02 07:13:51;;;;;;;18.20;11.57;;;;;5.80;100042.00;;;;5051579;28;20060;-64
2024/02/02 07:16:36;;;;;;;17.30;9.40;;;;;5.90;100052.00;;;;5052453;28;20433;-64
2024/02/02 07:19:03;;;;;;;26.45;12.00;;;;;6.00;100045.00;;;;5050855;28;20055;-64
2024/02/02 07:21:31;;;;;;;17.65;11.25;;;;;6.10;100051.00;;;;5052278;28;20037;-64
2024/02/02 07:23:59;;;;;;;20.67;12.00;;;;;6.20;100058.00;;;;5051408;28;20451;-64
2024/02/02 07:26:29;;;;;;;19.42;11.18;;;;;6.30;100069.00;;;;5050562;28;20053;-64
2024/02/02 07:28:57;;;;;;;16.80;10.52;;;;;6.30;100060.00;;;;5052364;28;20159;-64
2024/02/02 07:31:37;;;;;;;24.05;11.18;;;;;6.30;100051.00;;;;5055954;28;20375;-62
2024/02/02 07:34:32;;;;;;;18.70;11.05;;;;;6.40;100042.00;;;;5055121;28;20091;-62
2024/02/02 07:36:59;;;;;;;17.10;11.20;;;;;6.50;100039.00;;;;5056385;28;20437;-62
2024/02/02 07:39:29;;;;;;;19.83;10.90;;;;;6.50;100052.00;;;;5056426;28;20060;-60
2024/02/02 07:41:57;;;;;;;25.10;12.40;;;;;6.60;100053.00;;;;5055987;28;20116;-61
2024/02/02 07:44:25;;;;;;;19.27;10.77;;;;;6.70;100055.00;;;;5055501;28;20410;-62
2024/02/02 07:46:52;;;;;;;23.10;11.73;;;;;6.70;100054.00;;;;5056587;28;20053;-61
2024/02/02 07:49:19;;;;;;;18.50;11.52;;;;;6.70;100052.00;;;;5056356;28;20055;-60
2024/02/02 07:51:46;;;;;;;22.20;11.23;;;;;6.70;100047.00;;;;5055763;28;20041;-61
2024/02/02 07:54:13;;;;;;;21.55;11.73;;;;;6.70;100038.00;;;;5055293;28;20049;-62
2024/02/02 07:56:39;;;;;;;23.05;12.43;;;;;6.80;100031.00;;;;5037887;28;20056;-63
2024/02/02 07:59:06;;;;;;;18.50;12.27;;;;;6.80;100029.00;;;;5055611;28;20045;-60
2024/02/02 08:01:33;;;;;;;24.02;13.30;;;;;6.80;100033.00;;;;5055343;28;20043;-62
2024/02/02 08:04:03;;;;;;;25.63;12.98;;;;;6.80;100037.00;;;;5054882;28;20045;-63
2024/02/02 08:06:30;;;;;;;23.63;13.07;;;;;6.90;100037.00;;;;5054917;28;20067;-62
2024/02/02 08:08:57;;;;;;;25.55;12.65;;;;;7.00;100038.00;;;;5055576;28;20041;-61
2024/02/02 08:11:25;;;;;;;31.08;13.05;;;;;7.10;100044.00;;;;5055172;28;20044;-62
2024/02/02 08:13:52;;;;;;;28.95;12.30;;;;;7.10;100048.00;;;;5054443;28;20041;-62
2024/02/02 08:16:18;;;;;;;22.52;11.07;;;;;7.20;100037.00;;;;5053963;28;20052;-63
2024/02/02 08:18:45;;;;;;;27.17;11.65;;;;;7.10;100038.00;;;;5055068;28;20045;-62
2024/02/02 08:21:12;;;;;;;26.60;11.10;;;;;7.20;100032.00;;;;5054729;28;20471;-62
2024/02/02 08:23:40;;;;;;;22.55;11.32;;;;;7.30;100029.00;;;;5053081;28;20152;-61
2024/02/02 08:26:07;;;;;;;19.95;9.68;;;;;7.30;100033.00;;;;5054672;28;20049;-62
2024/02/02 08:28:34;;;;;;;21.50;11.80;;;;;7.30;100032.00;;;;5054790;28;20048;-62
2024/02/02 08:31:14;;;;;;;19.60;9.48;;;;;7.30;100035.00;;;;5054505;28;20036;-62
2024/02/02 08:33:42;;;;;;;18.48;9.27;;;;;7.30;100025.00;;;;5052834;28;20053;-62
2024/02/02 08:36:10;;;;;;;25.02;10.77;;;;;7.30;100036.00;;;;5053470;28;20049;-63
2024/02/02 08:38:37;;;;;;;23.80;10.75;;;;;7.30;100024.00;;;;5051122;28;20524;-63
2024/02/02 08:41:05;;;;;;;23.65;9.45;;;;;7.30;100019.00;;;;5053235;28;20122;-62
2024/02/02 08:43:32;;;;;;;24.27;7.80;;;;;7.50;100024.00;;;;5053682;28;20383;-62
2024/02/02 08:46:15;;;;;;;19.90;7.43;;;;;7.70;100028.00;;;;5054307;28;20049;-61
2024/02/02 08:48:45;;;;;;;19.20;6.90;;;;;7.80;100020.00;;;;5054358;28;20048;-60
2024/02/02 08:51:18;;;;;;;17.75;6.40;;;;;7.90;100023.00;;;;5054163;28;20041;-60
2024/02/02 08:53:44;;;;;;;17.38;7.07;;;;;7.90;100015.00;;;;5053516;28;20045;-63
2024/02/02 08:56:12;;;;;;;19.23;7.03;;;;;7.90;100028.00;;;;5054067;28;20044;-64
2024/02/02 08:58:39;;;;;;;20.02;7.38;;;;;8.00;100017.00;;;;5054091;28;20084;-62
2024/02/02 09:01:38;;;;;;;17.80;6.80;;;;;8.10;100021.00;;;;5054067;28;20453;-62
2024/02/02 09:04:05;;;;;;;14.32;6.47;;;;;8.20;100026.00;;;;5053786;28;20380;-61
2024/02/02 09:06:41;;;;;;;20.17;7.45;;;;;8.20;100031.00;;;;5053948;28;20045;-60
2024/02/02 09:09:17;;;;;;;20.42;6.88;;;;;8.20;100030.00;;;;5053879;28;20068;-62
2024/02/02 09:11:48;;;;;;;20.73;7.32;;;;;8.10;100029.00;;;;5053828;28;20490;-59
2024/02/02 09:14:17;;;;;;;23.58;7.43;;;;;8.20;100026.00;;;;5052208;28;20099;-59
2024/02/02 09:16:47;;;;;;;21.88;7.05;;;;;8.10;100029.00;;;;5053859;28;20099;-60
2024/02/02 09:19:29;;;;;;;15.23;6.93;;;;;8.00;100030.00;;;;5054058;28;20379;-60
2024/02/02 09:22:01;;;;;;;16.90;7.22;;;;;8.10;100018.00;;;;5053695;28;20049;-59
2024/02/02 09:24:39;;;;;;;22.50;8.13;;;;;8.20;100025.00;;;;5051935;28;20139;-60
2024/02/02 09:27:10;;;;;;;17.45;8.30;;;;;8.30;100026.00;;;;5053371;28;20068;-60
2024/02/02 09:29:44;;;;;;;17.15;7.03;;;;;8.30;100033.00;;;;5052223;28;20106;-61
2024/02/02 09:32:13;;;;;;;19.98;7.13;;;;;8.40;100044.00;;;;5053516;28;20474;-59
2024/02/02 09:34:40;;;;;;;20.63;6.78;;;;;8.40;100050.00;;;;5052841;28;20045;-61
2024/02/02 09:37:24;;;;;;;18.38;7.32;;;;;8.50;100033.00;;;;5053672;28;20433;-60
2024/02/02 09:39:55;;;;;;;18.48;8.75;;;;;8.70;100021.00;;;;5053382;28;20118;-60
2024/02/02 09:43:14;;;;;;;21.00;6.80;;;;;8.80;100021.00;;;;5053264;28;20045;-60
2024/02/02 09:45:52;;;;;;;17.40;6.93;;;;;8.90;100024.00;;;;5044004;28;20480;-62
2024/02/02 09:48:33;;;;;;;18.02;7.20;;;;;9.00;100031.00;;;;5053187;28;20128;-62
2024/02/02 09:51:18;;;;;;;20.98;7.45;;;;;9.10;100033.00;;;;5052951;28;20045;-62
2024/02/02 09:54:00;;;;;;;16.17;7.43;;;;;9.30;100040.00;;;;5050823;28;20049;-61
2024/02/02 09:56:55;;;;;;;17.00;7.15;;;;;9.30;100041.00;;;;5053894;28;20041;-62
2024/02/02 09:59:27;;;;;;;17.60;7.03;;;;;9.30;100030.00;;;;5053273;28;20055;-62
2024/02/02 10:02:20;;;;;;;14.70;6.22;;;;;9.30;100037.00;;;;5052877;28;20052;-61
2024/02/02 10:05:15;;;;;;;15.27;6.60;;;;;9.30;100038.00;;;;5052279;28;20403;-61
2024/02/02 10:08:01;;;;;;;;;;;;;9.30;100040.00;;;;5053241;28;20091;-62
2024/02/02 10:10:42;;;;;;;19.08;6.85;;;;;9.30;100041.00;;;;5052697;28;19921;-62
2024/02/02 10:13:46;;;;;;;15.02;6.45;;;;;9.40;100040.00;;;;5052701;28;20069;-63
2024/02/02 10:16:25;;;;;;;15.20;6.35;;;;;9.50;100032.00;;;;5052979;28;20410;-61
2024/02/02 10:19:11;;;;;;;15.38;6.10;;;;;9.50;100048.00;;;;5053039;28;20120;-62
2024/02/02 10:21:49;;;;;;;18.05;6.28;;;;;9.50;100047.00;;;;5052575;28;20387;-62
2024/02/02 10:24:27;;;;;;;15.57;6.10;;;;;9.50;100034.00;;;;5052166;28;20041;-62
2024/02/02 10:27:09;;;;;;;14.63;6.00;;;;;9.60;100049.00;;;;5052363;28;20044;-62
2024/02/02 10:29:48;;;;;;;15.73;6.55;;;;;9.60;100025.00;;;;5052534;28;20090;-62
2024/02/02 10:32:34;;;;;;;15.18;5.65;;;;;9.70;100035.00;;;;5052301;28;20087;-62
2024/02/02 10:35:04;;;;;;;13.25;6.65;;;;;9.70;100040.00;;;;5052007;28;20051;-62
2024/02/02 10:37:35;;;;;;;15.15;6.65;;;;;9.90;100036.00;;;;5050851;28;20055;-62
2024/02/02 10:40:09;;;;;;;17.40;6.15;;;;;10.00;100043.00;;;;5052218;28;20045;-62
2024/02/02 10:42:51;;;;;;;13.88;6.07;;;;;9.90;100042.00;;;;5052369;28;20041;-62
2024/02/02 10:45:32;;;;;;;11.70;5.50;;;;;10.00;100038.00;;;;5050357;28;20512;-62
2024/02/02 10:48:22;;;;;;;13.85;5.97;;;;;10.10;100041.00;;;;5052192;28;20055;-61
2024/02/02 10:51:00;;;;;;;9.73;4.47;;;;;10.20;100041.00;;;;5048773;28;20068;-60
2024/02/02 10:53:59;;;;;;;8.00;4.72;;;;;10.40;100040.00;;;;5051510;28;20591;-61
2024/02/02 10:56:45;;;;;;;9.90;5.18;;;;;10.40;100037.00;;;;5052140;28;20045;-60
2024/02/02 10:59:28;;;;;;;9.85;4.63;;;;;10.40;100020.00;;;;5050751;28;20056;-61
2024/02/02 11:02:05;;;;;;;13.05;4.65;;;;;10.40;100027.00;;;;5052443;28;20084;-61
2024/02/02 11:04:48;;;;;;;11.32;5.05;;;;;10.60;100024.00;;;;5049363;28;20132;-61
2024/02/02 11:07:21;;;;;;;9.52;4.70;;;;;10.60;100021.00;;;;5051880;28;20114;-61
2024/02/02 11:10:03;;;;;;;10.05;4.47;;;;;10.70;100007.00;;;;5051905;28;20382;-61
2024/02/02 11:12:45;;;;;;;10.60;5.28;;;;;10.70;100004.00;;;;5051630;28;20049;-61
2024/02/02 11:15:19;;;;;;;10.57;4.60;;;;;10.70;100003.00;;;;5051214;28;20402;-61
2024/02/02 11:18:10;;;;;;;9.18;4.05;;;;;10.70;100008.00;;;;5051783;28;20123;-61
2024/02/02 11:20:57;;;;;;;11.38;4.85;;;;;10.80;99992.00;;;;5051710;28;20055;-61
2024/02/02 11:23:36;;;;;;;9.73;3.85;;;;;10.80;99989.00;;;;5039954;28;20067;-60
2024/02/02 11:26:18;;;;;;;13.93;4.88;;;;;10.90;99989.00;;;;5051810;28;20064;-61
2024/02/02 11:29:04;;;;;;;10.35;4.63;;;;;11.00;99999.00;;;;5051583;28;20563;-62
2024/02/02 11:31:49;;;;;;;8.77;4.18;;;;;10.90;99993.00;;;;5051618;28;20135;-61
2024/02/02 11:34:37;;;;;;;6.72;3.75;;;;;10.90;99985.00;;;;5052976;28;20656;-62
2024/02/02 11:37:22;;;;;;;7.90;3.65;;;;;10.90;99972.00;;;;5058357;28;20037;-62
2024/02/02 11:39:59;;;;;;;7.43;3.88;;;;;10.90;99971.00;;;;5043309;28;20049;-62
2024/02/02 11:42:28;;;;;;;11.18;4.00;;;;;10.90;99968.00;;;;5045267;28;20042;-61
2024/02/02 11:44:57;;;;;;;8.43;4.43;;;;;11.00;99980.00;;;;5044329;28;20049;-60
2024/02/02 11:47:25;;;;;;;5.63;3.83;;;;;11.00;99966.00;;;;5034749;28;20049;-60
2024/02/02 11:50:05;;;;;;;5.40;3.65;;;;;10.90;99965.00;;;;5033239;28;20124;-59
2024/02/02 11:52:39;;;;;;;8.23;3.75;;;;;10.80;99967.00;;;;5032695;28;20045;-59
2024/02/02 11:55:12;;;;;;;;;;;;;10.90;99955.00;;;;5032655;28;20045;-59
2024/02/02 11:57:47;;;;;;;6.80;3.35;;;;;10.80;99954.00;;;;5031222;28;20394;-59
2024/02/02 12:00:43;;;;;;;9.63;3.50;;;;;10.80;99952.00;;;;5032799;28;20054;-60
2024/02/02 12:03:36;;;;;;;11.57;3.70;;;;;10.80;99953.00;;;;5022393;28;20548;-61
2024/02/02 12:06:15;;;;;;;6.75;4.03;;;;;10.80;99962.00;;;;5027204;28;20057;-60
2024/02/02 12:09:11;;;;;;;8.38;3.67;;;;;10.70;99952.00;;;;5032938;28;20072;-60
2024/02/02 12:11:39;;;;;;;11.60;4.50;;;;;10.70;99955.00;;;;5032411;28;20041;-60
2024/02/02 12:14:30;;;;;;;8.10;4.45;;;;;10.70;99955.00;;;;5031914;28;20553;-60
2024/02/02 12:16:58;;;;;;;7.32;4.38;;;;;10.80;99953.00;;;;5033545;28;20418;-60
2024/02/02 12:19:26;;;;;;;5.53;3.38;;;;;10.80;99958.00;;;;5036180;28;20041;-60
2024/02/02 12:21:54;;;;;;;7.22;4.10;;;;;10.90;99950.00;;;;5033821;28;20049;-60
2024/02/02 12:24:21;;;;;;;7.43;4.60;;;;;10.90;99950.00;;;;5033394;28;20049;-61
2024/02/02 12:26:49;;;;;;;8.93;5.25;;;;;11.00;99943.00;;;;5033499;28;20431;-63
2024/02/02 12:29:16;;;;;;;9.57;4.38;;;;;11.20;99940.00;;;;5034206;28;20042;-62
2024/02/02 12:31:43;;;;;;;8.20;5.75;;;;;11.20;99944.00;;;;5035056;28;20155;-62